createdAt,value
2023-04-03T00:00:19.751Z,28.95
2023-04-03T00:01:20.740Z,28.23
2023-04-03T00:02:20.779Z,29.71
2023-04-03T00:03:20.738Z,27.53
2023-04-03T00:04:19.724Z,26.71
2023-04-03T00:05:20.731Z,25.70
2023-04-03T00:06:20.681Z,30.18
2023-04-03T00:07:20.677Z,25.00
2023-04-03T00:08:19.760Z,28.77
2023-04-03T00:09:19.657Z,29.04
2023-04-03T00:10:20.715Z,27.08
2023-04-03T00:11:20.718Z,30.02
2023-04-03T00:12:20.731Z,30.00
2023-04-03T00:13:20.761Z,26.39
2023-04-03T00:14:20.774Z,29.77
2023-04-03T00:15:20.771Z,29.23
2023-04-03T00:16:20.847Z,27.66
2023-04-03T00:17:19.789Z,28.93
2023-04-03T00:18:20.808Z,28.68
2023-04-03T00:19:20.817Z,26.64
2023-04-03T00:20:19.803Z,26.54
2023-04-03T00:21:20.809Z,28.25
2023-04-03T00:22:20.827Z,29.50
2023-04-03T00:23:20.853Z,27.43
2023-04-03T00:24:20.845Z,27.85
2023-04-03T00:25:19.860Z,25.75
2023-04-03T00:26:19.886Z,28.84
2023-04-03T00:27:20.901Z,27.93
2023-04-03T00:28:19.910Z,27.15
2023-04-03T00:29:20.902Z,28.48
2023-04-03T00:30:20.922Z,29.97
2023-04-03T00:31:20.963Z,29.46
2023-04-03T00:32:20.981Z,28.67
2023-04-03T00:33:19.978Z,30.88
2023-04-03T00:34:21.034Z,30.34
2023-04-03T00:35:21.022Z,27.98
2023-04-03T00:36:21.150Z,30.53
2023-04-03T00:37:21.052Z,29.85
2023-04-03T00:38:21.094Z,30.38
2023-04-03T00:39:21.112Z,30.44
2023-04-03T00:40:21.185Z,25.96
2023-04-03T00:41:21.202Z,29.32
2023-04-03T00:42:21.213Z,28.32
2023-04-03T00:43:21.225Z,26.64
2023-04-03T00:44:21.332Z,29.65
2023-04-03T00:45:21.316Z,27.85
2023-04-03T00:46:20.324Z,30.18
2023-04-03T00:47:21.316Z,29.50
2023-04-03T00:48:20.361Z,28.47
2023-04-03T00:49:21.384Z,27.79
2023-04-03T00:50:21.461Z,29.00
2023-04-03T00:51:21.564Z,28.80
2023-04-03T00:52:21.519Z,30.03
2023-04-03T00:53:21.575Z,29.40
2023-04-03T00:54:21.593Z,28.34
2023-04-03T00:55:21.627Z,27.39
2023-04-03T00:56:21.690Z,30.25
2023-04-03T00:57:20.790Z,28.44
2023-04-03T00:58:20.780Z,28.90
2023-04-03T00:59:21.747Z,28.86
2023-04-03T01:00:21.792Z,26.68
2023-04-03T01:01:21.816Z,26.76
2023-04-03T01:02:21.867Z,28.99
2023-04-03T01:03:20.794Z,27.20
2023-04-03T01:04:21.828Z,29.40
2023-04-03T01:05:21.798Z,29.91
2023-04-03T01:06:21.785Z,31.13
2023-04-03T01:07:21.818Z,30.42
2023-04-03T01:08:22.507Z,30.72
2023-04-03T01:09:21.881Z,29.95
2023-04-03T01:10:21.960Z,29.06
2023-04-03T01:11:21.981Z,29.73
2023-04-03T01:12:21.994Z,28.64
2023-04-03T01:13:22.001Z,30.42
2023-04-03T01:14:21.012Z,25.89
2023-04-03T01:15:21.036Z,27.73
2023-04-03T01:16:22.094Z,29.47
2023-04-03T01:17:21.064Z,28.51
2023-04-03T01:18:22.069Z,27.64
2023-04-03T01:19:22.082Z,27.74
2023-04-03T01:20:22.078Z,28.18
2023-04-03T01:21:22.079Z,26.80
2023-04-03T01:22:22.083Z,27.56
2023-04-03T01:23:22.092Z,30.91
2023-04-03T01:24:22.113Z,26.18
2023-04-03T01:25:21.170Z,29.12
2023-04-03T01:26:22.149Z,30.30
2023-04-03T01:27:22.175Z,28.14
2023-04-03T01:28:22.176Z,26.84
2023-04-03T01:29:22.217Z,29.79
2023-04-03T01:30:22.194Z,29.12
2023-04-03T01:31:22.346Z,29.41
2023-04-03T01:32:22.254Z,27.89
2023-04-03T01:33:22.255Z,29.91
2023-04-03T01:34:22.355Z,30.64
2023-04-03T01:35:21.370Z,28.41
2023-04-03T01:36:21.421Z,28.60
2023-04-03T01:37:22.490Z,29.18
2023-04-03T01:38:22.514Z,28.15
2023-04-03T01:39:22.565Z,27.73
2023-04-03T01:40:22.629Z,28.89
2023-04-03T01:41:21.622Z,27.25
2023-04-03T01:42:21.611Z,28.35
2023-04-03T01:43:22.641Z,27.62
2023-04-03T01:44:22.665Z,27.22
2023-04-03T01:45:22.787Z,29.01
2023-04-03T01:46:21.702Z,30.55
2023-04-03T01:47:22.795Z,28.81
2023-04-03T01:48:22.745Z,29.76
2023-04-03T01:49:22.761Z,28.10
2023-04-03T01:50:22.777Z,29.86
2023-04-03T01:51:21.795Z,29.46
2023-04-03T01:52:22.809Z,29.61
2023-04-03T01:53:22.803Z,28.97
2023-04-03T01:54:22.845Z,28.71
2023-04-03T01:55:22.869Z,30.41
2023-04-03T01:56:22.867Z,27.86
2023-04-03T01:57:22.921Z,28.45
2023-04-03T01:58:22.879Z,29.69
2023-04-03T01:59:22.885Z,27.41
2023-04-03T02:00:22.922Z,28.58
2023-04-03T02:01:22.007Z,28.54
2023-04-03T02:02:21.916Z,27.63
2023-04-03T02:03:22.876Z,29.81
2023-04-03T02:04:22.923Z,28.73
2023-04-03T02:05:22.897Z,26.68
2023-04-03T02:06:22.946Z,28.34
2023-04-03T02:07:22.888Z,26.38
2023-04-03T02:08:22.900Z,25.38
2023-04-03T02:09:22.952Z,28.15
2023-04-03T02:10:22.908Z,26.77
2023-04-03T02:11:22.930Z,27.53
2023-04-03T02:12:22.990Z,28.09
2023-04-03T02:13:22.957Z,27.02
2023-04-03T02:14:22.945Z,27.07
2023-04-03T02:15:22.939Z,27.00
2023-04-03T02:16:22.944Z,27.47
2023-04-03T02:17:23.040Z,26.44
2023-04-03T02:18:21.937Z,28.00
2023-04-03T02:19:22.927Z,28.09
2023-04-03T02:20:22.947Z,27.11
2023-04-03T02:21:22.915Z,27.03
2023-04-03T02:22:22.923Z,26.06
2023-04-03T02:23:22.925Z,25.76
2023-04-03T02:24:22.947Z,26.76
2023-04-03T02:25:22.927Z,27.70
2023-04-03T02:26:22.921Z,27.29
2023-04-03T02:27:22.926Z,27.09
2023-04-03T02:28:22.959Z,27.59
2023-04-03T02:29:22.920Z,26.80
2023-04-03T02:30:22.926Z,26.85
2023-04-03T02:31:22.025Z,27.13
2023-04-03T02:32:22.915Z,26.57
2023-04-03T02:33:22.919Z,25.99
2023-04-03T02:34:22.956Z,25.83
2023-04-03T02:35:22.913Z,26.10
2023-04-03T02:36:21.916Z,27.71
2023-04-03T02:37:21.941Z,26.45
2023-04-03T02:38:22.922Z,27.27
2023-04-03T02:39:22.926Z,26.60
2023-04-03T02:40:22.949Z,27.18
2023-04-03T02:41:22.906Z,27.37
2023-04-03T02:42:21.979Z,26.58
2023-04-03T02:43:22.924Z,26.65
2023-04-03T02:44:22.898Z,26.71
2023-04-03T02:45:22.969Z,26.38
2023-04-03T02:46:22.910Z,27.04
2023-04-03T02:47:22.910Z,26.42
2023-04-03T02:48:22.907Z,25.73
2023-04-03T02:49:22.910Z,27.82
2023-04-03T02:50:22.884Z,25.40
2023-04-03T02:51:21.883Z,26.48
2023-04-03T02:52:22.877Z,26.80
2023-04-03T02:53:22.891Z,26.90
2023-04-03T02:54:22.894Z,26.04
2023-04-03T02:55:22.895Z,26.14
2023-04-03T02:56:22.914Z,26.64
2023-04-03T02:57:21.926Z,26.24
2023-04-03T02:58:22.892Z,26.55
2023-04-03T02:59:22.893Z,25.55
2023-04-03T03:00:22.895Z,25.97
2023-04-03T03:01:22.949Z,27.68
2023-04-03T03:02:22.886Z,27.53
2023-04-03T03:03:22.872Z,27.58
2023-04-03T03:04:22.868Z,26.37
2023-04-03T03:05:22.923Z,26.81
2023-04-03T03:06:22.915Z,27.74
2023-04-03T03:07:22.917Z,27.11
2023-04-03T03:08:22.891Z,29.37
2023-04-03T03:09:22.887Z,27.64
2023-04-03T03:10:22.883Z,26.72
2023-04-03T03:11:22.905Z,27.05
2023-04-03T03:12:21.907Z,26.22
2023-04-03T03:13:22.928Z,26.85
2023-04-03T03:14:22.918Z,27.26
2023-04-03T03:15:22.904Z,26.88
2023-04-03T03:16:22.945Z,28.04
2023-04-03T03:17:22.917Z,25.61
2023-04-03T03:18:22.908Z,27.47
2023-04-03T03:19:21.919Z,28.27
2023-04-03T03:20:22.901Z,27.02
2023-04-03T03:21:22.966Z,27.44
2023-04-03T03:22:22.914Z,27.53
2023-04-03T03:23:21.913Z,26.72
2023-04-03T03:24:22.913Z,26.46
2023-04-03T03:25:22.903Z,26.69
2023-04-03T03:26:22.919Z,27.57
2023-04-03T03:27:23.024Z,26.17
2023-04-03T03:28:22.923Z,26.92
2023-04-03T03:29:22.990Z,26.01
2023-04-03T03:30:22.941Z,28.00
2023-04-03T03:31:22.991Z,25.74
2023-04-03T03:32:22.954Z,26.40
2023-04-03T03:33:22.946Z,26.15
2023-04-03T03:34:22.944Z,26.35
2023-04-03T03:35:22.955Z,26.69
2023-04-03T03:36:21.988Z,26.18
2023-04-03T03:37:23.001Z,27.14
2023-04-03T03:38:22.972Z,26.16
2023-04-03T03:39:22.977Z,27.10
2023-04-03T03:40:23.008Z,26.78
2023-04-03T03:41:23.008Z,27.37
2023-04-03T03:42:22.028Z,25.99
2023-04-03T03:43:22.026Z,25.76
2023-04-03T03:44:23.051Z,27.27
2023-04-03T03:45:23.106Z,26.59
2023-04-03T03:46:22.253Z,27.25
2023-04-03T03:47:22.100Z,26.63
2023-04-03T03:48:23.077Z,26.82
2023-04-03T03:49:23.161Z,27.09
2023-04-03T03:50:23.087Z,26.33
2023-04-03T03:51:23.193Z,27.62
2023-04-03T03:52:23.119Z,27.10
2023-04-03T03:53:22.170Z,26.34
2023-04-03T03:54:23.148Z,26.85
2023-04-03T03:55:23.162Z,26.71
2023-04-03T03:56:22.174Z,25.88
2023-04-03T03:57:23.271Z,25.53
2023-04-03T03:58:23.203Z,27.04
2023-04-03T03:59:23.238Z,25.66
2023-04-03T04:00:23.243Z,27.18
2023-04-03T04:01:23.295Z,27.05
2023-04-03T04:02:23.328Z,25.87
2023-04-03T04:03:23.317Z,25.88
2023-04-03T04:04:22.332Z,26.43
2023-04-03T04:05:23.337Z,26.94
2023-04-03T04:06:23.306Z,26.42
2023-04-03T04:07:23.277Z,26.74
2023-04-03T04:08:22.304Z,26.39
2023-04-03T04:09:23.336Z,26.55
2023-04-03T04:10:23.346Z,25.89
2023-04-03T04:11:23.360Z,26.58
2023-04-03T04:12:22.338Z,26.67
2023-04-03T04:13:23.346Z,26.31
2023-04-03T04:14:22.375Z,26.35
2023-04-03T04:15:23.366Z,26.20
2023-04-03T04:16:23.406Z,26.31
2023-04-03T04:17:22.500Z,26.51
2023-04-03T04:18:23.388Z,27.01
2023-04-03T04:19:23.405Z,27.39
2023-04-03T04:20:22.446Z,27.22
2023-04-03T04:21:23.464Z,27.16
2023-04-03T04:22:22.446Z,25.50
2023-04-03T04:23:23.441Z,26.78
2023-04-03T04:24:22.465Z,25.00
2023-04-03T04:25:23.517Z,26.92
2023-04-03T04:26:22.527Z,25.69
2023-04-03T04:27:23.512Z,27.27
2023-04-03T04:28:23.526Z,25.98
2023-04-03T04:29:23.527Z,27.25
2023-04-03T04:30:23.529Z,27.81
2023-04-03T04:31:23.570Z,26.91
2023-04-03T04:32:23.554Z,28.39
2023-04-03T04:33:23.554Z,25.34
2023-04-03T04:34:23.564Z,26.57
2023-04-03T04:35:23.584Z,25.42
2023-04-03T04:36:22.790Z,26.17
2023-04-03T04:37:22.618Z,26.00
2023-04-03T04:38:22.690Z,26.60
2023-04-03T04:39:23.609Z,26.84
2023-04-03T04:40:23.631Z,26.73
2023-04-03T04:41:23.668Z,26.48
2023-04-03T04:42:22.720Z,26.34
2023-04-03T04:43:23.657Z,25.99
2023-04-03T04:44:23.654Z,27.44
2023-04-03T04:45:22.764Z,27.12
2023-04-03T04:46:23.737Z,25.90
2023-04-03T04:47:22.723Z,25.40
2023-04-03T04:48:23.701Z,26.09
2023-04-03T04:49:23.725Z,26.02
2023-04-03T04:50:23.730Z,26.74
2023-04-03T04:51:23.764Z,27.39
2023-04-03T04:52:23.768Z,26.74
2023-04-03T04:53:23.784Z,26.86
2023-04-03T04:54:22.800Z,26.50
2023-04-03T04:55:23.837Z,26.91
2023-04-03T04:56:23.861Z,29.07
2023-04-03T04:57:23.947Z,27.67
2023-04-03T04:58:23.900Z,27.10
2023-04-03T04:59:23.921Z,27.45
2023-04-03T05:00:23.925Z,27.02
2023-04-03T05:01:23.989Z,27.73
2023-04-03T05:02:24.027Z,27.78
2023-04-03T05:03:23.068Z,26.35
2023-04-03T05:04:23.080Z,26.85
2023-04-03T05:05:23.043Z,27.23
2023-04-03T05:06:24.058Z,26.17
2023-04-03T05:07:24.074Z,26.39
2023-04-03T05:08:24.089Z,26.37
2023-04-03T05:09:24.114Z,25.22
2023-04-03T05:10:24.109Z,25.94
2023-04-03T05:11:25.127Z,26.03
2023-04-03T05:12:24.132Z,26.74
2023-04-03T05:13:23.178Z,26.24
2023-04-03T05:14:24.217Z,26.97
2023-04-03T05:15:23.195Z,27.15
2023-04-03T05:16:24.295Z,26.77
2023-04-03T05:17:23.279Z,26.91
2023-04-03T05:18:24.268Z,26.22
2023-04-03T05:19:24.285Z,26.69
2023-04-03T05:20:23.326Z,26.10
2023-04-03T05:21:24.371Z,25.18
2023-04-03T05:22:24.361Z,26.26
2023-04-03T05:23:23.377Z,26.30
2023-04-03T05:24:23.446Z,25.82
2023-04-03T05:25:24.400Z,27.42
2023-04-03T05:26:23.394Z,28.22
2023-04-03T05:27:24.396Z,26.37
2023-04-03T05:28:23.421Z,27.03
2023-04-03T05:29:24.397Z,27.52
2023-04-03T05:30:24.386Z,27.15
2023-04-03T05:31:24.434Z,25.86
2023-04-03T05:32:23.414Z,26.12
2023-04-03T05:33:23.358Z,26.86
2023-04-03T05:34:24.360Z,27.63
2023-04-03T05:35:24.361Z,26.12
2023-04-03T05:36:23.426Z,27.53
2023-04-03T05:37:24.326Z,25.40
2023-04-03T05:38:24.320Z,26.26
2023-04-03T05:39:23.338Z,25.77
2023-04-03T05:40:24.311Z,26.42
2023-04-03T05:41:24.301Z,26.00
2023-04-03T05:42:24.308Z,25.87
2023-04-03T05:43:24.317Z,27.57
2023-04-03T05:44:24.269Z,27.42
2023-04-03T05:45:24.292Z,26.94
2023-04-03T05:46:24.277Z,26.39
2023-04-03T05:47:23.262Z,25.81
2023-04-03T05:48:23.236Z,25.73
2023-04-03T05:49:23.258Z,26.30
2023-04-03T05:50:24.228Z,26.00
2023-04-03T05:51:24.204Z,26.70
2023-04-03T05:52:23.224Z,26.51
2023-04-03T05:53:24.218Z,25.31
2023-04-03T05:54:24.209Z,25.78
2023-04-03T05:55:23.256Z,26.18
2023-04-03T05:56:24.201Z,25.87
2023-04-03T05:57:24.207Z,25.76
2023-04-03T05:58:24.164Z,25.00
2023-04-03T05:59:24.176Z,27.60
2023-04-03T06:00:24.141Z,26.18
2023-04-03T06:01:23.192Z,26.28
2023-04-03T06:02:23.203Z,25.90
2023-04-03T06:03:24.335Z,28.19
2023-04-03T06:04:24.174Z,26.88
2023-04-03T06:05:23.130Z,28.33
2023-04-03T06:06:24.093Z,28.51
2023-04-03T06:07:24.095Z,28.01
2023-04-03T06:08:24.091Z,27.28
2023-04-03T06:09:23.153Z,27.32
2023-04-03T06:10:24.085Z,27.55
2023-04-03T06:11:24.068Z,27.56
2023-04-03T06:12:23.069Z,26.31
2023-04-03T06:13:24.041Z,27.35
2023-04-03T06:14:24.060Z,26.68
2023-04-03T06:15:23.092Z,26.77
2023-04-03T06:16:24.168Z,25.63
2023-04-03T06:17:24.205Z,26.55
2023-04-03T06:18:24.221Z,27.38
2023-04-03T06:19:23.187Z,27.87
2023-04-03T06:20:24.237Z,26.38
2023-04-03T06:21:24.254Z,25.74
2023-04-03T06:22:23.247Z,27.53
2023-04-03T06:23:24.287Z,27.18
2023-04-03T06:24:24.299Z,26.00
2023-04-03T06:25:24.325Z,26.35
2023-04-03T06:26:24.386Z,27.74
2023-04-03T06:27:24.397Z,27.99
2023-04-03T06:28:25.404Z,28.24
2023-04-03T06:29:24.422Z,29.03
2023-04-03T06:30:23.422Z,29.40
2023-04-03T06:31:24.467Z,27.89
2023-04-03T06:32:24.440Z,26.82
2023-04-03T06:33:24.411Z,27.14
2023-04-03T06:34:24.381Z,26.26
2023-04-03T06:35:24.374Z,27.18
2023-04-03T06:36:24.360Z,27.22
2023-04-03T06:37:23.376Z,26.21
2023-04-03T06:38:24.454Z,27.70
2023-04-03T06:39:24.383Z,25.28
2023-04-03T06:40:24.361Z,26.19
2023-04-03T06:41:24.377Z,26.60
2023-04-03T06:42:24.352Z,26.76
2023-04-03T06:43:24.688Z,27.02
2023-04-03T06:44:24.484Z,28.38
2023-04-03T06:45:24.384Z,27.14
2023-04-03T06:46:24.376Z,27.27
2023-04-03T06:47:23.319Z,28.13
2023-04-03T06:48:24.293Z,27.87
2023-04-03T06:49:24.310Z,27.38
2023-04-03T06:50:24.280Z,27.05
2023-04-03T06:51:24.274Z,27.19
2023-04-03T06:52:24.262Z,27.15
2023-04-03T06:53:23.248Z,27.69
2023-04-03T06:54:24.282Z,29.19
2023-04-03T06:55:24.256Z,27.84
2023-04-03T06:56:24.250Z,27.47
2023-04-03T06:57:23.250Z,27.89
2023-04-03T06:58:23.357Z,27.29
2023-04-03T06:59:24.213Z,27.53
2023-04-03T07:00:24.204Z,26.39
2023-04-03T07:01:24.294Z,26.03
2023-04-03T07:02:24.294Z,26.29
2023-04-03T07:03:24.225Z,28.35
2023-04-03T07:04:24.229Z,25.30
2023-04-03T07:05:24.201Z,25.47
2023-04-03T07:06:24.192Z,25.47
2023-04-03T07:07:24.167Z,25.34
2023-04-03T07:08:23.154Z,26.11
2023-04-03T07:09:23.153Z,26.72
2023-04-03T07:10:24.139Z,25.93
2023-04-03T07:11:24.156Z,27.52
2023-04-03T07:12:23.140Z,27.54
2023-04-03T07:13:23.141Z,27.01
2023-04-03T07:14:23.188Z,26.11
2023-04-03T07:15:24.228Z,26.44
2023-04-03T07:16:24.328Z,27.15
2023-04-03T07:17:24.319Z,28.09
2023-04-03T07:18:24.380Z,28.88
2023-04-03T07:19:23.465Z,28.89
2023-04-03T07:20:23.400Z,26.13
2023-04-03T07:21:24.461Z,25.07
2023-04-03T07:22:24.474Z,26.01
2023-04-03T07:23:24.493Z,25.95
2023-04-03T07:24:23.711Z,26.00
2023-04-03T07:25:24.520Z,25.93
2023-04-03T07:26:24.574Z,27.91
2023-04-03T07:27:24.568Z,26.79
2023-04-03T07:28:24.605Z,26.72
2023-04-03T07:29:24.609Z,27.29
2023-04-03T07:30:23.702Z,26.84
2023-04-03T07:31:23.680Z,27.09
2023-04-03T07:32:24.708Z,27.00
2023-04-03T07:33:24.723Z,29.36
2023-04-03T07:34:24.750Z,25.41
2023-04-03T07:35:23.799Z,25.73
2023-04-03T07:36:24.841Z,27.19
2023-04-03T07:37:24.874Z,26.80
2023-04-03T07:38:23.862Z,27.94
2023-04-03T07:39:24.892Z,26.94
2023-04-03T07:40:24.933Z,26.53
2023-04-03T07:41:24.967Z,26.74
2023-04-03T07:42:24.993Z,25.77
2023-04-03T07:43:25.021Z,27.45
2023-04-03T07:44:25.041Z,26.45
2023-04-03T07:45:25.209Z,25.46
2023-04-03T07:46:24.196Z,27.75
2023-04-03T07:47:24.216Z,26.86
2023-04-03T07:48:25.165Z,25.04
2023-04-03T07:49:25.191Z,27.88
2023-04-03T07:50:24.247Z,26.01
2023-04-03T07:51:25.251Z,25.63
2023-04-03T07:52:25.276Z,26.56
2023-04-03T07:53:25.481Z,26.97
2023-04-03T07:54:25.356Z,25.90
2023-04-03T07:55:24.392Z,26.30
2023-04-03T07:56:25.449Z,26.79
2023-04-03T07:57:25.542Z,28.84
2023-04-03T07:58:24.540Z,28.14
2023-04-03T07:59:25.539Z,25.67
2023-04-03T08:00:25.555Z,26.83
2023-04-03T08:01:25.620Z,27.66
2023-04-03T08:02:24.745Z,26.42
2023-04-03T08:03:25.864Z,25.52
2023-04-03T08:04:25.726Z,25.56
2023-04-03T08:05:25.718Z,27.24
2023-04-03T08:06:33.293Z,27.25
2023-04-03T08:07:25.780Z,27.43
2023-04-03T08:08:25.743Z,27.81
2023-04-03T08:09:24.760Z,27.88
2023-04-03T08:10:24.721Z,26.30
2023-04-03T08:11:25.708Z,25.38
2023-04-03T08:12:25.725Z,25.41
2023-04-03T08:13:25.733Z,25.00
2023-04-03T08:14:25.711Z,27.92
2023-04-03T08:15:25.685Z,27.90
2023-04-03T08:16:25.713Z,25.66
2023-04-03T08:17:25.686Z,26.71
2023-04-03T08:18:25.697Z,26.47
2023-04-03T08:19:26.826Z,27.17
2023-04-03T08:20:25.666Z,27.39
2023-04-03T08:21:25.656Z,26.24
2023-04-03T08:22:24.641Z,26.21
2023-04-03T08:23:24.690Z,28.55
2023-04-03T08:24:25.716Z,27.01
2023-04-03T08:25:24.829Z,25.00
2023-04-03T08:26:24.823Z,26.39
2023-04-03T08:27:25.862Z,27.23
2023-04-03T08:28:25.936Z,25.09
2023-04-03T08:29:25.970Z,26.24
2023-04-03T08:30:26.029Z,26.98
2023-04-03T08:31:26.100Z,26.24
2023-04-03T08:32:26.174Z,26.82
2023-04-03T08:33:26.166Z,25.00
2023-04-03T08:34:25.206Z,27.11
2023-04-03T08:35:26.258Z,27.29
2023-04-03T08:36:26.330Z,27.46
2023-04-03T08:37:26.306Z,28.04
2023-04-03T08:38:26.343Z,28.05
2023-04-03T08:39:26.385Z,31.40
2023-04-03T08:40:26.478Z,26.71
2023-04-03T08:41:26.599Z,27.98
2023-04-03T08:42:26.499Z,27.64
2023-04-03T08:43:26.567Z,27.65
2023-04-03T08:44:26.531Z,27.60
2023-04-03T08:45:26.585Z,27.22
2023-04-03T08:46:26.614Z,27.26
2023-04-03T08:47:26.643Z,26.55
2023-04-03T08:48:26.673Z,25.92
2023-04-03T08:49:26.767Z,26.08
2023-04-03T08:50:26.768Z,28.58
2023-04-03T08:51:25.782Z,26.47
2023-04-03T08:52:26.826Z,27.69
2023-04-03T08:53:26.852Z,26.22
2023-04-03T08:54:26.919Z,27.13
2023-04-03T08:55:26.958Z,25.42
2023-04-03T08:56:27.009Z,25.40
2023-04-03T08:57:27.237Z,27.57
2023-04-03T08:58:26.058Z,25.12
2023-04-03T08:59:27.086Z,27.02
2023-04-03T09:00:27.133Z,26.21
2023-04-03T09:01:27.176Z,25.47
2023-04-03T09:02:27.200Z,27.89
2023-04-03T09:03:27.359Z,25.90
2023-04-03T09:04:27.270Z,27.22
2023-04-03T09:05:27.352Z,26.75
2023-04-03T09:06:27.347Z,28.74
2023-04-03T09:07:27.384Z,27.16
2023-04-03T09:08:27.498Z,26.32
2023-04-03T09:09:27.507Z,26.43
2023-04-03T09:10:27.501Z,27.85
2023-04-03T09:11:27.512Z,26.42
2023-04-03T09:12:27.581Z,28.17
2023-04-03T09:13:27.765Z,26.36
2023-04-03T09:14:26.636Z,25.73
2023-04-03T09:15:38.680Z,26.19
2023-04-03T09:16:27.724Z,26.42
2023-04-03T09:17:27.656Z,27.06
2023-04-03T09:18:27.632Z,26.72
2023-04-03T09:19:26.640Z,28.70
2023-04-03T09:20:27.614Z,28.72
2023-04-03T09:21:27.704Z,27.59
2023-04-03T09:22:27.624Z,28.17
2023-04-03T09:23:27.614Z,28.49
2023-04-03T09:24:27.603Z,27.81
2023-04-03T09:25:27.581Z,26.70
2023-04-03T09:26:27.572Z,27.31
2023-04-03T09:27:27.622Z,28.91
2023-04-03T09:28:27.824Z,28.48
2023-04-03T09:29:27.830Z,29.85
2023-04-03T09:30:27.775Z,29.44
2023-04-03T09:31:27.904Z,29.67
2023-04-03T09:32:26.825Z,28.99
2023-04-03T09:33:27.851Z,27.60
2023-04-03T09:34:27.854Z,29.08
2023-04-03T09:35:36.322Z,27.88
2023-04-03T09:36:27.928Z,28.08
2023-04-03T09:37:27.874Z,28.55
2023-04-03T09:38:27.885Z,28.23
2023-04-03T09:39:27.864Z,29.18
2023-04-03T09:40:27.930Z,28.32
2023-04-03T09:41:27.852Z,26.80
2023-04-03T09:42:26.837Z,25.46
2023-04-03T09:43:27.837Z,25.81
2023-04-03T09:44:27.832Z,28.51
2023-04-03T09:45:27.937Z,27.49
2023-04-03T09:46:27.865Z,28.32
2023-04-03T09:47:27.844Z,27.33
2023-04-03T09:48:27.989Z,27.21
2023-04-03T09:49:27.789Z,25.81
2023-04-03T09:50:27.825Z,26.51
2023-04-03T09:51:27.793Z,27.74
2023-04-03T09:52:27.800Z,28.21
2023-04-03T09:53:27.785Z,27.66
2023-04-03T09:54:27.741Z,28.11
2023-04-03T09:55:27.737Z,27.04
2023-04-03T09:56:27.748Z,27.56
2023-04-03T09:57:27.875Z,27.12
2023-04-03T09:58:31.401Z,27.83
2023-04-03T09:59:27.740Z,28.15
2023-04-03T10:00:27.732Z,28.38
2023-04-03T10:01:27.843Z,29.35
2023-04-03T10:02:27.727Z,28.62
2023-04-03T10:03:27.700Z,27.97
2023-04-03T10:04:27.761Z,27.92
2023-04-03T10:05:27.707Z,26.56
2023-04-03T10:06:27.699Z,25.27
2023-04-03T10:07:27.653Z,25.23
2023-04-03T10:08:27.668Z,25.55
2023-04-03T10:09:27.665Z,28.88
2023-04-03T10:10:27.633Z,27.97
2023-04-03T10:11:27.650Z,26.71
2023-04-03T10:12:27.696Z,25.97
2023-04-03T10:13:27.639Z,27.26
2023-04-03T10:14:27.663Z,26.74
2023-04-03T10:15:27.593Z,26.89
2023-04-03T10:16:27.638Z,26.97
2023-04-03T10:17:27.746Z,27.12
2023-04-03T10:18:27.673Z,25.65
2023-04-03T10:19:27.581Z,25.59
2023-04-03T10:20:27.561Z,28.35
2023-04-03T10:21:27.911Z,27.96
2023-04-03T10:22:27.554Z,26.70
2023-04-03T10:23:27.561Z,27.57
2023-04-03T10:24:27.555Z,25.97
2023-04-03T10:25:27.543Z,26.98
2023-04-03T10:26:27.513Z,26.74
2023-04-03T10:27:28.105Z,27.80
2023-04-03T10:28:27.527Z,25.54
2023-04-03T10:29:27.513Z,27.04
2023-04-03T10:30:27.514Z,26.76
2023-04-03T10:31:27.613Z,26.20
2023-04-03T10:32:27.492Z,26.93
2023-04-03T10:33:27.606Z,26.87
2023-04-03T10:34:27.460Z,27.50
2023-04-03T10:35:27.476Z,27.48
2023-04-03T10:36:27.686Z,27.59
2023-04-03T10:37:27.498Z,27.95
2023-04-03T10:38:27.436Z,27.66
2023-04-03T10:39:26.423Z,27.67
2023-04-03T10:40:26.450Z,28.19
2023-04-03T10:41:26.403Z,28.31
2023-04-03T10:42:27.421Z,26.50
2023-04-03T10:43:27.427Z,26.05
2023-04-03T10:44:26.400Z,27.62
2023-04-03T10:45:26.392Z,28.63
2023-04-03T10:46:26.487Z,29.04
2023-04-03T10:47:27.441Z,29.74
2023-04-03T10:48:27.473Z,27.43
2023-04-03T10:49:26.588Z,29.04
2023-04-03T10:50:27.494Z,29.48
2023-04-03T10:51:26.481Z,31.17
2023-04-03T10:52:27.510Z,30.57
2023-04-03T10:53:26.550Z,29.27
2023-04-03T10:54:26.540Z,31.16
2023-04-03T10:55:26.572Z,30.55
2023-04-03T10:56:26.592Z,31.95
2023-04-03T10:57:27.627Z,30.30
2023-04-03T10:58:27.609Z,30.18
2023-04-03T10:59:27.632Z,31.18
2023-04-03T11:00:27.645Z,31.17
2023-04-03T11:01:27.676Z,31.15
2023-04-03T11:02:30.224Z,30.11
2023-04-03T11:03:27.786Z,30.26
2023-04-03T11:04:26.677Z,30.31
2023-04-03T11:05:26.783Z,30.10
2023-04-03T11:06:27.634Z,29.31
2023-04-03T11:07:27.678Z,29.88
2023-04-03T11:08:27.707Z,29.62
2023-04-03T11:09:27.639Z,29.62
2023-04-03T11:10:26.609Z,28.61
2023-04-03T11:11:27.628Z,28.48
2023-04-03T11:12:26.612Z,28.29
2023-04-03T11:13:27.647Z,28.36
2023-04-03T11:14:27.587Z,29.23
2023-04-03T11:15:26.593Z,27.42
2023-04-03T11:16:27.577Z,28.96
2023-04-03T11:17:27.572Z,29.21
2023-04-03T11:18:27.588Z,28.70
2023-04-03T11:19:27.612Z,28.37
2023-04-03T11:20:26.569Z,26.98
2023-04-03T11:21:26.660Z,28.08
2023-04-03T11:22:27.517Z,27.77
2023-04-03T11:23:28.350Z,27.06
2023-04-03T11:24:27.507Z,27.25
2023-04-03T11:25:26.496Z,27.20
2023-04-03T11:26:26.557Z,26.91
2023-04-03T11:27:27.503Z,28.03
2023-04-03T11:28:27.527Z,29.23
2023-04-03T11:29:35.054Z,28.34
2023-04-03T11:30:27.462Z,28.69
2023-04-03T11:31:27.527Z,29.19
2023-04-03T11:32:26.491Z,29.71
2023-04-03T11:33:26.449Z,29.41
2023-04-03T11:34:26.449Z,29.98
2023-04-03T11:35:27.438Z,30.69
2023-04-03T11:36:29.939Z,31.50
2023-04-03T11:37:26.541Z,31.69
2023-04-03T11:38:27.486Z,31.76
2023-04-03T11:39:27.821Z,30.79
2023-04-03T11:40:27.533Z,29.11
2023-04-03T11:41:26.529Z,30.43
2023-04-03T11:42:27.595Z,28.88
2023-04-03T11:43:26.606Z,28.19
2023-04-03T11:44:26.679Z,28.69
2023-04-03T11:45:27.720Z,27.15
2023-04-03T11:46:27.715Z,28.30
2023-04-03T11:47:27.832Z,29.59
2023-04-03T11:48:27.772Z,29.43
2023-04-03T11:49:27.764Z,29.41
2023-04-03T11:50:26.786Z,30.08
2023-04-03T11:51:27.788Z,29.77
2023-04-03T11:52:27.811Z,28.92
2023-04-03T11:53:28.045Z,29.67
2023-04-03T11:54:32.453Z,30.10
2023-04-03T11:55:27.846Z,30.34
2023-04-03T11:56:27.845Z,30.80
2023-04-03T11:57:27.891Z,30.81
2023-04-03T11:58:27.819Z,31.49
2023-04-03T11:59:27.847Z,31.03
2023-04-03T12:00:27.808Z,31.11
2023-04-03T12:01:28.313Z,31.32
2023-04-03T12:02:27.845Z,31.07
2023-04-03T12:03:27.985Z,30.54
2023-04-03T12:04:28.066Z,31.09
2023-04-03T12:05:27.787Z,29.81
2023-04-03T12:06:27.773Z,30.86
2023-04-03T12:07:26.782Z,30.12
2023-04-03T12:08:27.749Z,29.39
2023-04-03T12:09:26.868Z,31.81
2023-04-03T12:10:32.360Z,29.49
2023-04-03T12:11:27.724Z,29.89
2023-04-03T12:12:27.736Z,30.83
2023-04-03T12:13:27.733Z,31.47
2023-04-03T12:14:27.703Z,32.53
2023-04-03T12:15:27.699Z,50.75
2023-04-03T12:16:27.748Z,57.44
2023-04-03T12:17:27.731Z,48.13
2023-04-03T12:18:27.680Z,44.75
2023-04-03T12:19:35.456Z,44.62
2023-04-03T12:20:27.665Z,44.91
2023-04-03T12:21:27.660Z,45.03
2023-04-03T12:22:27.656Z,44.31
2023-04-03T12:23:27.643Z,42.68
2023-04-03T12:24:26.628Z,44.20
2023-04-03T12:25:27.748Z,43.15
2023-04-03T12:26:30.230Z,43.54
2023-04-03T12:27:27.614Z,43.78
2023-04-03T12:28:26.605Z,43.93
2023-04-03T12:29:26.630Z,44.03
2023-04-03T12:30:27.591Z,43.83
2023-04-03T12:31:27.790Z,46.63
2023-04-03T12:32:26.620Z,45.00
2023-04-03T12:33:27.599Z,44.83
2023-04-03T12:34:26.550Z,42.90
2023-04-03T12:35:26.656Z,43.16
2023-04-03T12:36:27.555Z,43.75
2023-04-03T12:37:27.566Z,44.16
2023-04-03T12:38:27.529Z,44.83
2023-04-03T12:39:27.538Z,43.97
2023-04-03T12:40:27.530Z,46.22
2023-04-03T12:41:26.650Z,46.01
2023-04-03T12:42:26.496Z,44.66
2023-04-03T12:43:27.525Z,44.94
2023-04-03T12:44:26.493Z,45.76
2023-04-03T12:45:27.565Z,45.52
2023-04-03T12:46:26.697Z,45.27
2023-04-03T12:47:27.506Z,44.16
2023-04-03T12:48:27.471Z,45.26
2023-04-03T12:49:27.496Z,43.72
2023-04-03T12:50:27.521Z,42.39
2023-04-03T12:51:27.532Z,44.24
2023-04-03T12:52:27.569Z,45.39